createdAt,value
2022-12-08T00:01:28.719Z,20.08
2022-12-08T00:03:56.442Z,18.42
2022-12-08T00:06:46.728Z,18.25
2022-12-08T00:09:22.129Z,18.85
2022-12-08T00:12:10.795Z,15.93
2022-12-08T00:14:39.828Z,17.48
2022-12-08T00:17:08.141Z,18.17
2022-12-08T00:19:34.922Z,17.33
2022-12-08T00:22:01.943Z,18.30
2022-12-08T00:24:35.154Z,19.20
2022-12-08T00:27:02.988Z,18.35
2022-12-08T00:29:29.667Z,18.00
2022-12-08T00:31:56.455Z,21.27
2022-12-08T00:34:23.233Z,19.60
2022-12-08T00:36:49.844Z,19.83
2022-12-08T00:39:17.721Z,17.92
2022-12-08T00:42:03.135Z,17.77
2022-12-08T00:44:29.876Z,17.13
2022-12-08T00:46:56.823Z,17.23
2022-12-08T00:49:24.070Z,16.02
2022-12-08T00:51:50.894Z,17.50
2022-12-08T00:54:18.290Z,17.17
2022-12-08T00:56:45.025Z,16.55
2022-12-08T00:59:12.136Z,13.82
2022-12-08T01:01:38.746Z,16.98
2022-12-08T01:04:12.205Z,14.40
2022-12-08T01:06:39.437Z,17.98
2022-12-08T01:09:07.656Z,18.23
2022-12-08T01:11:35.113Z,17.52
2022-12-08T01:14:01.828Z,18.92
2022-12-08T01:16:31.111Z,18.88
2022-12-08T01:18:59.153Z,17.17
2022-12-08T01:21:26.056Z,17.73
2022-12-08T01:23:52.650Z,18.42
2022-12-08T01:26:22.203Z,18.05
2022-12-08T01:28:48.840Z,16.75
2022-12-08T01:31:18.239Z,16.63
2022-12-08T01:33:45.247Z,19.67
2022-12-08T01:36:32.844Z,16.15
2022-12-08T01:39:01.333Z,16.77
2022-12-08T01:41:31.285Z,15.75
2022-12-08T01:44:24.683Z,18.50
2022-12-08T01:46:53.582Z,14.70
2022-12-08T01:49:33.108Z,16.42
2022-12-08T01:52:23.406Z,15.90
2022-12-08T01:54:56.243Z,15.55
2022-12-08T01:57:31.005Z,18.45
2022-12-08T02:00:09.901Z,16.83
2022-12-08T02:03:00.384Z,15.60
2022-12-08T02:05:33.560Z,15.00
2022-12-08T02:08:04.470Z,13.60
2022-12-08T02:10:34.711Z,14.38
2022-12-08T02:13:02.923Z,15.85
2022-12-08T02:15:38.785Z,16.00
2022-12-08T02:18:17.576Z,15.65
2022-12-08T02:21:02.292Z,18.15
2022-12-08T02:23:50.573Z,14.45
2022-12-08T02:26:45.567Z,21.80
2022-12-08T02:29:44.211Z,15.50
2022-12-08T02:32:35.636Z,16.35
2022-12-08T02:35:17.919Z,16.60
2022-12-08T02:37:55.185Z,13.55
2022-12-08T02:40:29.120Z,13.77
2022-12-08T02:43:18.111Z,14.40
2022-12-08T02:45:51.767Z,12.43
2022-12-08T02:48:18.355Z,13.18
2022-12-08T02:50:44.983Z,13.85
2022-12-08T02:55:43.212Z,11.73
2022-12-08T02:58:28.349Z,13.00
2022-12-08T03:01:13.032Z,17.25
2022-12-08T03:03:45.781Z,14.90
2022-12-08T03:06:35.097Z,16.38
2022-12-08T03:09:18.828Z,13.63
2022-12-08T03:11:56.081Z,14.50
2022-12-08T03:14:22.926Z,14.98
2022-12-08T03:16:55.183Z,17.13
2022-12-08T03:19:26.432Z,15.43
2022-12-08T03:22:02.717Z,14.27
2022-12-08T03:24:36.358Z,17.42
2022-12-08T03:27:13.703Z,16.63
2022-12-08T03:29:41.025Z,15.65
2022-12-08T03:32:35.550Z,14.50
2022-12-08T03:35:06.680Z,14.50
2022-12-08T03:37:36.039Z,15.27
2022-12-08T03:40:04.964Z,14.65
2022-12-08T03:42:31.773Z,14.50
2022-12-08T03:44:58.292Z,15.52
2022-12-08T03:47:24.865Z,15.15
2022-12-08T03:49:51.452Z,16.38
2022-12-08T03:52:17.963Z,17.80
2022-12-08T03:54:44.530Z,14.65
2022-12-08T03:57:11.186Z,16.90
2022-12-08T03:59:37.726Z,15.88
2022-12-08T04:02:04.357Z,15.77
2022-12-08T04:04:31.304Z,17.17
2022-12-08T04:06:57.945Z,15.00
2022-12-08T04:09:24.639Z,16.63
2022-12-08T04:11:51.242Z,14.57
2022-12-08T04:14:17.732Z,17.80
2022-12-08T04:16:44.284Z,14.85
2022-12-08T04:19:10.881Z,14.80
2022-12-08T04:21:37.387Z,14.40
2022-12-08T04:24:04.048Z,17.55
2022-12-08T04:26:30.735Z,16.25
2022-12-08T04:28:57.228Z,17.75
2022-12-08T04:31:23.941Z,16.35
2022-12-08T04:33:50.648Z,14.88
2022-12-08T04:36:17.177Z,17.38
2022-12-08T04:38:43.748Z,14.20
2022-12-08T04:41:10.522Z,17.60
2022-12-08T04:43:37.244Z,17.75
2022-12-08T04:46:07.397Z,18.65
2022-12-08T04:48:35.104Z,15.50
2022-12-08T04:51:01.628Z,15.23
2022-12-08T04:53:28.189Z,16.80
2022-12-08T04:55:55.012Z,14.02
2022-12-08T04:58:21.875Z,12.38
2022-12-08T05:00:48.937Z,15.45
2022-12-08T05:03:16.137Z,14.50
2022-12-08T05:05:43.061Z,14.68
2022-12-08T05:08:10.488Z,18.20
2022-12-08T05:10:37.350Z,19.35
2022-12-08T05:13:03.877Z,18.60
2022-12-08T05:15:30.517Z,17.02
2022-12-08T05:17:57.117Z,17.88
2022-12-08T05:20:23.779Z,13.52
2022-12-08T05:22:50.538Z,17.02
2022-12-08T05:25:17.355Z,16.25
2022-12-08T05:27:43.978Z,17.17
2022-12-08T05:30:10.717Z,18.83
2022-12-08T05:32:37.407Z,16.25
2022-12-08T05:35:04.041Z,16.90
2022-12-08T05:37:30.587Z,16.25
2022-12-08T05:39:57.184Z,16.48
2022-12-08T05:42:25.075Z,13.85
2022-12-08T05:44:52.311Z,13.00
2022-12-08T05:47:19.036Z,16.27
2022-12-08T05:49:47.002Z,18.02
2022-12-08T05:52:13.585Z,15.45
2022-12-08T05:54:40.255Z,16.10
2022-12-08T05:57:06.890Z,18.02
2022-12-08T05:59:33.457Z,17.67
2022-12-08T06:02:00.219Z,18.42
2022-12-08T06:04:26.932Z,17.70
2022-12-08T06:06:53.654Z,18.50
2022-12-08T06:09:20.212Z,19.73
2022-12-08T06:11:47.282Z,17.70
2022-12-08T06:14:14.110Z,14.43
2022-12-08T06:16:40.806Z,20.42
2022-12-08T06:19:07.459Z,18.67
2022-12-08T06:21:34.105Z,19.50
2022-12-08T06:24:00.915Z,17.08
2022-12-08T06:26:27.728Z,18.75
2022-12-08T06:28:54.755Z,21.23
2022-12-08T06:31:23.824Z,20.15
2022-12-08T06:33:51.104Z,22.50
2022-12-08T06:36:19.673Z,20.92
2022-12-08T06:38:46.633Z,20.13
2022-12-08T06:41:13.391Z,20.90
2022-12-08T06:43:41.158Z,21.77
2022-12-08T06:46:10.571Z,22.33
2022-12-08T06:48:37.167Z,22.83
2022-12-08T06:51:17.241Z,23.85
2022-12-08T06:53:44.571Z,21.52
2022-12-08T06:56:11.672Z,23.00
2022-12-08T06:58:38.970Z,19.48
2022-12-08T07:01:07.693Z,21.55
2022-12-08T07:03:34.766Z,22.20
2022-12-08T07:06:04.041Z,24.48
2022-12-08T07:08:32.063Z,22.15
2022-12-08T07:10:58.842Z,20.08
2022-12-08T07:13:25.465Z,19.52
2022-12-08T07:15:52.212Z,19.17
2022-12-08T07:18:18.799Z,18.15
2022-12-08T07:20:45.429Z,19.60
2022-12-08T07:23:11.963Z,17.08
2022-12-08T07:25:38.623Z,18.27
2022-12-08T07:28:11.801Z,17.63
2022-12-08T07:30:39.249Z,17.13
2022-12-08T07:33:06.689Z,18.85
2022-12-08T07:35:35.015Z,17.60
2022-12-08T07:38:01.940Z,20.25
2022-12-08T07:40:28.804Z,19.48
2022-12-08T07:42:57.255Z,20.92
2022-12-08T07:45:29.862Z,20.77
2022-12-08T07:47:58.173Z,21.27
2022-12-08T07:50:24.823Z,23.17
2022-12-08T07:52:51.318Z,22.73
2022-12-08T07:55:18.150Z,23.92
2022-12-08T07:57:44.714Z,23.10
2022-12-08T08:00:11.780Z,24.83
2022-12-08T08:02:38.549Z,21.50
2022-12-08T08:05:06.325Z,25.05
2022-12-08T08:07:33.051Z,25.08
2022-12-08T08:09:59.710Z,25.42
2022-12-08T08:12:33.624Z,30.48
2022-12-08T08:15:01.528Z,23.23
2022-12-08T08:17:29.262Z,25.17
2022-12-08T08:19:56.400Z,23.05
2022-12-08T08:22:23.076Z,26.05
2022-12-08T08:24:49.699Z,26.83
2022-12-08T08:27:16.287Z,26.67
2022-12-08T08:29:42.851Z,25.75
2022-12-08T08:32:09.511Z,25.60
2022-12-08T08:34:36.135Z,23.48
2022-12-08T08:37:02.787Z,26.67
2022-12-08T08:39:30.395Z,24.60
2022-12-08T08:41:56.939Z,25.00
2022-12-08T08:44:23.681Z,25.23
2022-12-08T08:46:50.314Z,24.75
2022-12-08T08:49:17.023Z,26.30
2022-12-08T08:51:43.924Z,25.73
2022-12-08T08:54:10.679Z,26.63
2022-12-08T08:56:37.168Z,27.45
2022-12-08T08:59:03.901Z,24.25
2022-12-08T09:01:30.937Z,30.90
2022-12-08T09:03:58.101Z,29.30
2022-12-08T09:06:25.288Z,27.00
2022-12-08T09:08:52.264Z,25.00
2022-12-08T09:11:18.903Z,26.38
2022-12-08T09:13:49.473Z,26.08
2022-12-08T09:16:16.768Z,25.95
2022-12-08T09:18:43.381Z,25.05
2022-12-08T09:21:16.590Z,24.15
2022-12-08T09:23:43.722Z,22.92
2022-12-08T09:26:10.382Z,23.73
2022-12-08T09:28:37.089Z,25.95
2022-12-08T09:31:04.119Z,23.83
2022-12-08T09:33:30.826Z,24.30
2022-12-08T09:36:02.242Z,23.00
2022-12-08T09:40:55.372Z,22.73
2022-12-08T09:43:51.764Z,25.75
2022-12-08T09:46:19.724Z,24.20
2022-12-08T09:48:56.142Z,22.08
2022-12-08T09:51:38.998Z,23.48
2022-12-08T09:54:24.274Z,26.30
2022-12-08T09:56:55.018Z,22.02
2022-12-08T09:59:30.660Z,26.13
2022-12-08T10:01:57.475Z,26.23
2022-12-08T10:04:28.827Z,25.30
2022-12-08T10:09:45.629Z,24.35
2022-12-08T10:12:20.899Z,22.48
2022-12-08T10:14:57.187Z,26.92
2022-12-08T10:17:31.889Z,25.33
2022-12-08T10:20:04.259Z,26.17
2022-12-08T10:22:38.678Z,25.65
2022-12-08T10:25:06.683Z,23.88
2022-12-08T10:27:36.698Z,22.60
2022-12-08T10:30:12.092Z,24.27
2022-12-08T10:32:41.285Z,24.52
2022-12-08T10:35:12.062Z,25.58
2022-12-08T10:37:39.160Z,25.77
2022-12-08T10:40:09.016Z,24.77
2022-12-08T10:42:39.691Z,22.25
2022-12-08T10:45:09.140Z,23.25
2022-12-08T10:47:40.757Z,25.30
2022-12-08T10:50:19.434Z,23.77
2022-12-08T10:52:54.261Z,26.55
2022-12-08T10:55:21.760Z,24.65
2022-12-08T10:57:51.454Z,28.95
2022-12-08T11:00:21.964Z,26.75
2022-12-08T11:03:00.585Z,28.30
2022-12-08T11:05:35.730Z,27.88
2022-12-08T11:08:03.995Z,25.48
2022-12-08T11:10:44.700Z,26.77
2022-12-08T11:13:26.382Z,25.88
2022-12-08T11:15:57.018Z,27.45
2022-12-08T11:18:29.873Z,24.98
2022-12-08T11:21:07.637Z,25.83
2022-12-08T11:23:36.616Z,27.35
2022-12-08T11:26:11.858Z,27.80
2022-12-08T11:28:39.278Z,23.55
2022-12-08T11:31:25.480Z,26.48
2022-12-08T11:33:52.951Z,26.85
2022-12-08T11:36:23.063Z,25.48
2022-12-08T11:38:55.256Z,24.48
2022-12-08T11:41:27.166Z,24.70
2022-12-08T11:44:22.243Z,23.95
2022-12-08T11:47:20.503Z,27.70
2022-12-08T11:49:49.063Z,26.67
2022-12-08T11:52:27.862Z,27.40
2022-12-08T11:55:13.976Z,23.70
2022-12-08T11:57:40.675Z,27.38
2022-12-08T12:00:13.406Z,27.88
2022-12-08T12:02:44.963Z,29.33
2022-12-08T12:05:39.923Z,27.45
2022-12-08T12:08:50.368Z,25.63
2022-12-08T12:12:00.383Z,29.98
2022-12-08T12:14:32.708Z,28.08
2022-12-08T12:17:05.425Z,29.27
2022-12-08T12:19:39.625Z,28.75
2022-12-08T12:22:17.804Z,27.65
2022-12-08T12:24:47.547Z,32.30
2022-12-08T12:27:14.109Z,26.90
2022-12-08T12:30:00.722Z,28.27
2022-12-08T12:32:41.411Z,27.90
2022-12-08T12:35:29.294Z,34.63
2022-12-08T12:38:00.083Z,30.02
2022-12-08T12:40:29.123Z,28.73
2022-12-08T12:42:55.725Z,31.58
2022-12-08T12:45:22.203Z,28.35
2022-12-08T12:48:00.503Z,32.20
2022-12-08T12:50:39.029Z,29.77
2022-12-08T12:53:20.798Z,28.13
2022-12-08T12:56:03.990Z,31.10
2022-12-08T12:58:30.615Z,30.10
2022-12-08T13:01:17.001Z,28.13
2022-12-08T13:03:47.558Z,29.48
2022-12-08T13:06:21.569Z,27.33
2022-12-08T13:08:53.559Z,25.98
2022-12-08T13:11:21.539Z,27.80
2022-12-08T13:14:06.477Z,29.48
2022-12-08T13:16:39.462Z,28.40
2022-12-08T13:19:14.968Z,26.85
2022-12-08T13:21:42.052Z,29.50
2022-12-08T13:24:17.187Z,29.05
2022-12-08T13:26:45.787Z,27.77
2022-12-08T13:29:22.051Z,26.95
2022-12-08T13:31:55.617Z,25.85
2022-12-08T13:34:42.352Z,30.42
2022-12-08T13:37:11.687Z,29.83
2022-12-08T13:39:41.039Z,28.42
2022-12-08T13:42:19.367Z,25.58
2022-12-08T13:57:07.128Z,28.83
2022-12-08T13:59:44.749Z,26.48
2022-12-08T14:02:18.059Z,27.48
2022-12-08T14:05:16.994Z,26.73
2022-12-08T14:07:34.356Z,28.73
2022-12-08T14:10:03.767Z,28.38
2022-12-08T14:12:31.568Z,31.92
2022-12-08T14:15:03.734Z,28.67
2022-12-08T14:17:31.443Z,33.40
2022-12-08T14:19:59.183Z,28.33
2022-12-08T14:22:33.995Z,31.80
2022-12-08T14:25:00.830Z,30.90
2022-12-08T14:27:36.167Z,28.17
2022-12-08T14:30:15.565Z,27.50
2022-12-08T14:32:48.206Z,30.38
2022-12-08T14:35:29.999Z,28.63
2022-12-08T14:38:02.661Z,27.30
2022-12-08T14:40:35.722Z,29.60
2022-12-08T14:43:12.570Z,26.60
2022-12-08T14:45:39.126Z,32.42
2022-12-08T14:48:26.033Z,31.30
2022-12-08T14:51:20.301Z,28.33
2022-12-08T14:53:56.398Z,31.65
2022-12-08T14:56:24.820Z,29.15
2022-12-08T14:59:14.791Z,26.00
2022-12-08T15:04:17.405Z,31.85
2022-12-08T15:06:56.355Z,30.02
2022-12-08T15:09:35.157Z,32.30
2022-12-08T15:12:26.634Z,34.22
2022-12-08T15:14:55.348Z,32.15
2022-12-08T15:17:35.936Z,28.52
2022-12-08T15:20:04.630Z,29.77
2022-12-08T15:22:31.761Z,27.08
2022-12-08T15:24:58.583Z,35.35
2022-12-08T15:27:26.181Z,29.92
2022-12-08T15:29:53.334Z,32.90
2022-12-08T15:32:22.397Z,29.42
2022-12-08T15:34:49.466Z,33.47
2022-12-08T15:37:22.176Z,28.55
2022-12-08T15:39:49.449Z,31.20
2022-12-08T15:42:16.505Z,31.40
2022-12-08T15:44:43.846Z,30.50
2022-12-08T15:47:16.324Z,35.38
2022-12-08T15:49:43.045Z,27.25
2022-12-08T15:52:38.963Z,29.55
2022-12-08T15:55:06.045Z,31.73
2022-12-08T16:09:12.485Z,31.35
2022-12-08T16:12:08.240Z,29.08
2022-12-08T16:17:22.740Z,31.27
2022-12-08T16:19:49.301Z,34.53
2022-12-08T16:25:23.354Z,31.42
2022-12-08T16:28:36.925Z,34.03
2022-12-08T16:30:40.242Z,29.80
2022-12-08T16:33:07.117Z,31.15
2022-12-08T16:35:33.672Z,33.78
2022-12-08T16:38:00.478Z,32.20
2022-12-08T16:40:26.991Z,31.08
2022-12-08T16:42:53.570Z,34.78
2022-12-08T16:45:29.155Z,33.72
2022-12-08T16:47:58.293Z,34.97
2022-12-08T16:50:30.547Z,35.10
2022-12-08T16:52:59.189Z,35.30
2022-12-08T16:55:25.947Z,31.77
2022-12-08T16:57:53.211Z,33.28
2022-12-08T17:00:24.831Z,34.88
2022-12-08T17:02:52.208Z,32.42
2022-12-08T17:05:21.014Z,36.80
2022-12-08T17:07:50.177Z,41.00
2022-12-08T17:10:23.282Z,44.08
2022-12-08T17:12:50.339Z,33.03
2022-12-08T17:15:19.635Z,36.88
2022-12-08T17:17:47.476Z,41.08
2022-12-08T17:20:28.214Z,39.15
2022-12-08T17:22:56.293Z,33.30
2022-12-08T17:25:22.909Z,36.40
2022-12-08T17:27:49.475Z,39.38
2022-12-08T17:30:17.794Z,35.20
2022-12-08T17:32:44.582Z,38.60
2022-12-08T17:35:11.406Z,35.97
2022-12-08T17:37:38.238Z,36.42
2022-12-08T17:40:08.163Z,35.85
2022-12-08T17:42:34.957Z,36.13
2022-12-08T17:45:01.717Z,35.80
2022-12-08T17:47:28.244Z,32.17
2022-12-08T17:49:56.114Z,34.38
2022-12-08T17:52:22.942Z,35.53
2022-12-08T17:54:49.463Z,30.70
2022-12-08T17:57:15.962Z,40.10
2022-12-08T17:59:42.719Z,37.40
2022-12-08T18:02:10.878Z,34.33
2022-12-08T18:04:37.718Z,35.20
2022-12-08T18:07:04.447Z,35.42
2022-12-08T18:09:31.491Z,32.60
2022-12-08T18:11:58.180Z,36.90
2022-12-08T18:14:25.188Z,35.72
2022-12-08T18:16:53.366Z,35.92
2022-12-08T18:19:19.931Z,38.05
2022-12-08T18:21:46.547Z,36.85
2022-12-08T18:24:20.933Z,38.17
2022-12-08T18:26:48.078Z,33.58
2022-12-08T18:29:14.739Z,36.42
2022-12-08T18:31:41.239Z,36.13
2022-12-08T18:34:08.111Z,35.08
2022-12-08T18:36:34.831Z,33.13
2022-12-08T18:39:04.585Z,37.97
2022-12-08T18:41:35.557Z,38.10
2022-12-08T18:44:02.056Z,37.90
2022-12-08T18:46:28.693Z,34.33
2022-12-08T18:48:55.613Z,34.55
2022-12-08T18:51:23.708Z,35.35
2022-12-08T18:53:51.297Z,38.63
2022-12-08T18:56:22.328Z,32.08
2022-12-08T18:58:48.880Z,35.47
2022-12-08T19:01:15.653Z,34.67
2022-12-08T19:03:48.928Z,34.47
2022-12-08T19:06:30.047Z,36.28
2022-12-08T19:08:56.939Z,36.42
2022-12-08T19:11:26.137Z,35.03
2022-12-08T19:13:53.974Z,36.20
2022-12-08T19:16:21.524Z,34.05
2022-12-08T19:18:48.078Z,33.85
2022-12-08T19:21:14.688Z,38.22
2022-12-08T19:23:42.176Z,35.80
2022-12-08T19:26:08.898Z,40.17
2022-12-08T19:28:35.540Z,35.55
2022-12-08T19:31:10.130Z,34.42
2022-12-08T19:33:37.742Z,34.90
2022-12-08T19:36:10.670Z,35.13
2022-12-08T19:38:55.862Z,39.17
2022-12-08T19:41:41.642Z,39.75
2022-12-08T19:44:42.079Z,36.88
2022-12-08T19:47:09.317Z,40.30
2022-12-08T19:49:36.039Z,39.50
2022-12-08T19:52:02.680Z,37.65
2022-12-08T19:54:29.510Z,45.90
2022-12-08T19:56:56.305Z,40.30
2022-12-08T19:59:26.400Z,38.45
2022-12-08T20:01:55.973Z,43.35
2022-12-08T20:04:24.146Z,38.78
2022-12-08T20:06:52.604Z,35.60
2022-12-08T20:09:20.361Z,39.97
2022-12-08T20:11:46.963Z,37.05
2022-12-08T20:14:13.643Z,43.10
2022-12-08T20:16:41.917Z,37.92
2022-12-08T20:19:09.451Z,38.97
2022-12-08T20:21:36.045Z,37.75
2022-12-08T20:24:02.713Z,38.10
2022-12-08T20:26:29.276Z,39.08
2022-12-08T20:28:55.935Z,37.15
2022-12-08T20:31:28.350Z,36.35
2022-12-08T20:33:55.511Z,43.03
2022-12-08T20:36:22.485Z,42.38
2022-12-08T20:38:51.016Z,44.88
2022-12-08T20:41:18.552Z,43.50
2022-12-08T20:43:46.458Z,34.88
2022-12-08T20:46:15.517Z,39.60
2022-12-08T20:48:42.944Z,34.78
2022-12-08T20:51:13.103Z,37.72
2022-12-08T20:53:39.759Z,39.83
2022-12-08T20:56:06.724Z,39.42
2022-12-08T20:58:33.294Z,37.58
2022-12-08T21:00:59.934Z,39.85
2022-12-08T21:03:26.860Z,37.50
2022-12-08T21:05:53.865Z,40.03
2022-12-08T21:08:20.886Z,40.22
2022-12-08T21:10:53.871Z,42.90
2022-12-08T21:13:21.233Z,38.40
2022-12-08T21:15:48.092Z,40.03
2022-12-08T21:18:16.338Z,38.22
2022-12-08T21:20:44.071Z,38.75
2022-12-08T21:23:11.426Z,39.85
2022-12-08T21:25:42.690Z,43.15
2022-12-08T21:28:09.940Z,40.28
2022-12-08T21:30:38.851Z,44.30
2022-12-08T21:33:05.781Z,40.45
2022-12-08T21:35:32.460Z,44.83
2022-12-08T21:37:59.576Z,47.50
2022-12-08T21:40:26.126Z,51.75
2022-12-08T21:42:53.107Z,45.67
2022-12-08T21:45:20.877Z,45.28
2022-12-08T21:47:48.865Z,43.50
2022-12-08T21:50:16.541Z,44.63
2022-12-08T21:52:45.843Z,47.83
2022-12-08T21:55:14.352Z,42.72
2022-12-08T21:57:41.488Z,44.15
2022-12-08T22:00:10.953Z,41.97
2022-12-08T22:02:38.003Z,43.22
2022-12-08T22:05:05.345Z,41.50
2022-12-08T22:07:32.013Z,40.50
2022-12-08T22:09:58.782Z,43.72
2022-12-08T22:12:25.460Z,47.17
2022-12-08T22:14:52.406Z,45.08
2022-12-08T22:17:19.741Z,42.15
2022-12-08T22:19:46.527Z,44.30
2022-12-08T22:22:13.259Z,47.05
2022-12-08T22:24:39.889Z,39.22
2022-12-08T22:27:06.720Z,54.08
2022-12-08T22:29:33.515Z,47.15
2022-12-08T22:32:00.224Z,48.78
2022-12-08T22:34:27.314Z,46.22
2022-12-08T22:36:54.293Z,44.78
2022-12-08T22:39:21.111Z,43.95
2022-12-08T22:41:47.972Z,46.90
2022-12-08T22:44:15.843Z,44.47
2022-12-08T22:46:42.787Z,46.17
2022-12-08T22:49:09.562Z,47.33
2022-12-08T22:51:37.369Z,45.08
2022-12-08T22:54:04.449Z,42.88
2022-12-08T22:56:31.129Z,48.42
2022-12-08T22:58:58.513Z,42.92
2022-12-08T23:01:29.566Z,42.95
2022-12-08T23:03:57.521Z,48.53
2022-12-08T23:06:25.790Z,49.88
2022-12-08T23:08:53.217Z,43.17
2022-12-08T23:11:20.699Z,46.45
2022-12-08T23:13:47.617Z,47.97
2022-12-08T23:16:14.552Z,51.13
2022-12-08T23:18:43.231Z,45.17
2022-12-08T23:21:17.190Z,48.35
2022-12-08T23:23:44.208Z,48.97
2022-12-08T23:26:27.339Z,49.00
2022-12-08T23:28:54.518Z,52.15
2022-12-08T23:31:21.494Z,48.60
2022-12-08T23:33:48.657Z,47.13
2022-12-08T23:36:16.687Z,48.13
2022-12-08T23:38:43.756Z,48.55
2022-12-08T23:41:13.063Z,51.58
2022-12-08T23:43:47.295Z,50.45
2022-12-08T23:46:16.013Z,56.33
2022-12-08T23:48:42.878Z,49.17
2022-12-08T23:51:09.740Z,53.67
2022-12-08T23:53:36.427Z,48.30
2022-12-08T23:56:06.200Z,43.92
2022-12-08T23:58:33.946Z,45.58
